Etusivu
METAR-TAF:

METAR-TAF

Lentoasemat :

Kapuskasing, Ontario, Kanada

Leveyspiiri: 49-25N, Pituuspiiri: 082-28W, korkeus merenpinnasta: 227 m

Tämänhetkinen sää

Tämä raportti tehtiin 15 minuuttia sitten, kello 10.00 UTC
Tuuli 4 kn luoteesta
Lämpötila -15°C
Kosteus 85%
Ilmanpaine 1021 hPa
Näkyvyys: 24.1 km
selkeää

METAR: CYYU 251000Z 32004KT 15SM SKC M15/M17 A3014 RMK SLP228

Aika: 05:15 (10:15 UTC)

Sääennuste

Tämä raportti tehtiin 2 tuntia ja 37 minuuttia sitten, kello 07.38 UTC
Ennuste voimassa 25. päivästä klo 08 UTC - 25. päivään klo 20 UTC
Tuuli 3 kn eri suunnista
Näkyvyys: 10 km
selkeää
From 25. päivästä klo 1200 UTC
Tuuli 10 kn pohjoisen/luoteesta
Näkyvyys: 10 km
Hajonneita pilviä 4000 ft:n korkeudessa

TAF: CYYU 250738Z 2508/2520 VRB03KT P6SM SKC FM251200 33010KT P6SM BKN040 RMK NXT FCST BY 251400Z

Säähavainnot ja -ennusteet yli 4000 lentoasemalta (METAR- ja TAF-raportit).

Käytössä olevat sääasemat on merkitty karttaan keltaisilla ja punaisilla pisteillä.

Aseta hiiri pisteen päälle nähdäksesi sääaseman nimen.

Klikkaa sitten nähdäksesi säähavainnot ja -ennusteet.

Kartan vaihtaminen: klikkaa mustalla rastilla varustettuja vihreitä pisteitä, niin voit zoomata sisään; viivalla varustettua vihreää pistettä, niin voit zoomata ulos tai vihreitä nuolia, niin pääset viereisille kartoille.


METAR-TAF: